sensor_id;sensor_type;location;lat;lon;timestamp;P1;durP1;ratioP1;P2;durP2;ratioP2
45728;SDS011;31439;53.512;10.206;2023-07-13T00:01:42;5.75;;;2.42;;
45728;SDS011;31439;53.512;10.206;2023-07-13T00:04:08;5.32;;;2.25;;
45728;SDS011;31439;53.512;10.206;2023-07-13T00:06:34;4.28;;;2.30;;
45728;SDS011;31439;53.512;10.206;2023-07-13T00:09:00;5.93;;;2.33;;
45728;SDS011;31439;53.512;10.206;2023-07-13T00:11:26;6.25;;;2.08;;
45728;SDS011;31439;53.512;10.206;2023-07-13T00:13:52;4.75;;;2.40;;
45728;SDS011;31439;53.512;10.206;2023-07-13T00:16:18;5.38;;;2.45;;
45728;SDS011;31439;53.512;10.206;2023-07-13T00:18:45;4.85;;;2.40;;
45728;SDS011;31439;53.512;10.206;2023-07-13T00:21:11;7.15;;;2.42;;
45728;SDS011;31439;53.512;10.206;2023-07-13T00:23:38;5.80;;;2.53;;
45728;SDS011;31439;53.512;10.206;2023-07-13T00:26:08;2.72;;;1.98;;
45728;SDS011;31439;53.512;10.206;2023-07-13T00:28:35;4.93;;;2.17;;
45728;SDS011;31439;53.512;10.206;2023-07-13T00:31:01;4.65;;;2.53;;
45728;SDS011;31439;53.512;10.206;2023-07-13T00:33:27;5.75;;;2.38;;
45728;SDS011;31439;53.512;10.206;2023-07-13T00:35:54;6.63;;;2.60;;
45728;SDS011;31439;53.512;10.206;2023-07-13T00:38:20;4.18;;;2.47;;
45728;SDS011;31439;53.512;10.206;2023-07-13T00:40:46;6.47;;;2.70;;
45728;SDS011;31439;53.512;10.206;2023-07-13T00:43:21;4.88;;;2.38;;
45728;SDS011;31439;53.512;10.206;2023-07-13T00:48:14;7.25;;;2.50;;
45728;SDS011;31439;53.512;10.206;2023-07-13T00:50:43;7.53;;;2.60;;
45728;SDS011;31439;53.512;10.206;2023-07-13T00:53:11;6.53;;;2.70;;
45728;SDS011;31439;53.512;10.206;2023-07-13T00:55:38;6.70;;;3.00;;
45728;SDS011;31439;53.512;10.206;2023-07-13T00:58:04;8.85;;;2.70;;
45728;SDS011;31439;53.512;10.206;2023-07-13T01:00:31;6.93;;;2.60;;
45728;SDS011;31439;53.512;10.206;2023-07-13T01:02:59;6.55;;;2.83;;
45728;SDS011;31439;53.512;10.206;2023-07-13T01:05:29;4.00;;;2.75;;
45728;SDS011;31439;53.512;10.206;2023-07-13T01:07:56;4.43;;;2.75;;
45728;SDS011;31439;53.512;10.206;2023-07-13T01:10:22;6.82;;;3.15;;
45728;SDS011;31439;53.512;10.206;2023-07-13T01:12:49;7.32;;;2.97;;
45728;SDS011;31439;53.512;10.206;2023-07-13T01:18:05;5.40;;;2.85;;
45728;SDS011;31439;53.512;10.206;2023-07-13T01:20:32;8.00;;;2.80;;
45728;SDS011;31439;53.512;10.206;2023-07-13T01:23:03;5.13;;;3.00;;
45728;SDS011;31439;53.512;10.206;2023-07-13T01:25:34;8.38;;;3.40;;
45728;SDS011;31439;53.512;10.206;2023-07-13T01:28:00;5.43;;;2.90;;
45728;SDS011;31439;53.512;10.206;2023-07-13T01:30:27;7.32;;;3.20;;
45728;SDS011;31439;53.512;10.206;2023-07-13T01:32:52;5.72;;;2.90;;
45728;SDS011;31439;53.512;10.206;2023-07-13T01:35:18;6.32;;;2.70;;
45728;SDS011;31439;53.512;10.206;2023-07-13T01:37:43;5.55;;;2.92;;
45728;SDS011;31439;53.512;10.206;2023-07-13T01:40:10;5.88;;;3.17;;
45728;SDS011;31439;53.512;10.206;2023-07-13T01:42:36;5.20;;;2.70;;
45728;SDS011;31439;53.512;10.206;2023-07-13T01:45:03;6.45;;;2.80;;
45728;SDS011;31439;53.512;10.206;2023-07-13T01:47:29;9.43;;;3.35;;
45728;SDS011;31439;53.512;10.206;2023-07-13T01:49:56;7.40;;;3.25;;
45728;SDS011;31439;53.512;10.206;2023-07-13T01:52:22;5.63;;;3.28;;
45728;SDS011;31439;53.512;10.206;2023-07-13T01:54:47;5.68;;;2.90;;
45728;SDS011;31439;53.512;10.206;2023-07-13T01:57:13;5.45;;;3.05;;
45728;SDS011;31439;53.512;10.206;2023-07-13T01:59:39;10.35;;;3.30;;
45728;SDS011;31439;53.512;10.206;2023-07-13T02:02:04;6.75;;;3.10;;
45728;SDS011;31439;53.512;10.206;2023-07-13T02:04:30;6.68;;;3.47;;
45728;SDS011;31439;53.512;10.206;2023-07-13T02:06:55;10.43;;;3.33;;
45728;SDS011;31439;53.512;10.206;2023-07-13T02:09:21;8.43;;;3.50;;
45728;SDS011;31439;53.512;10.206;2023-07-13T02:11:47;6.18;;;3.22;;
45728;SDS011;31439;53.512;10.206;2023-07-13T02:14:13;7.50;;;3.58;;
45728;SDS011;31439;53.512;10.206;2023-07-13T02:16:40;8.07;;;3.50;;
45728;SDS011;31439;53.512;10.206;2023-07-13T02:19:06;6.95;;;3.80;;
45728;SDS011;31439;53.512;10.206;2023-07-13T02:21:31;6.68;;;4.35;;
45728;SDS011;31439;53.512;10.206;2023-07-13T02:23:57;6.88;;;3.83;;
45728;SDS011;31439;53.512;10.206;2023-07-13T02:26:22;6.68;;;3.60;;
45728;SDS011;31439;53.512;10.206;2023-07-13T02:28:49;6.25;;;3.70;;
45728;SDS011;31439;53.512;10.206;2023-07-13T02:31:15;5.90;;;4.20;;
45728;SDS011;31439;53.512;10.206;2023-07-13T02:33:41;7.20;;;3.80;;
45728;SDS011;31439;53.512;10.206;2023-07-13T02:36:07;7.20;;;4.10;;
45728;SDS011;31439;53.512;10.206;2023-07-13T02:38:33;7.03;;;4.35;;
45728;SDS011;31439;53.512;10.206;2023-07-13T02:41:00;6.20;;;4.10;;
45728;SDS011;31439;53.512;10.206;2023-07-13T02:43:27;8.20;;;4.00;;
45728;SDS011;31439;53.512;10.206;2023-07-13T02:45:52;7.57;;;4.30;;
45728;SDS011;31439;53.512;10.206;2023-07-13T02:48:18;5.30;;;3.90;;
45728;SDS011;31439;53.512;10.206;2023-07-13T02:50:44;6.32;;;4.32;;
45728;SDS011;31439;53.512;10.206;2023-07-13T02:53:10;6.95;;;4.10;;
45728;SDS011;31439;53.512;10.206;2023-07-13T02:55:35;10.68;;;4.18;;
45728;SDS011;31439;53.512;10.206;2023-07-13T02:58:01;8.80;;;4.53;;
45728;SDS011;31439;53.512;10.206;2023-07-13T03:00:27;8.88;;;4.30;;
45728;SDS011;31439;53.512;10.206;2023-07-13T03:02:53;7.40;;;4.07;;
45728;SDS011;31439;53.512;10.206;2023-07-13T03:05:22;6.55;;;4.25;;
45728;SDS011;31439;53.512;10.206;2023-07-13T03:07:48;7.45;;;4.45;;
45728;SDS011;31439;53.512;10.206;2023-07-13T03:10:14;6.93;;;4.35;;
45728;SDS011;31439;53.512;10.206;2023-07-13T03:12:41;7.72;;;4.30;;
45728;SDS011;31439;53.512;10.206;2023-07-13T03:15:07;6.15;;;4.13;;
45728;SDS011;31439;53.512;10.206;2023-07-13T03:17:32;7.47;;;4.78;;
45728;SDS011;31439;53.512;10.206;2023-07-13T03:19:58;8.25;;;4.60;;
45728;SDS011;31439;53.512;10.206;2023-07-13T03:22:24;7.05;;;4.43;;
45728;SDS011;31439;53.512;10.206;2023-07-13T03:24:49;8.90;;;4.45;;
45728;SDS011;31439;53.512;10.206;2023-07-13T03:27:15;6.47;;;4.55;;
45728;SDS011;31439;53.512;10.206;2023-07-13T03:29:42;8.45;;;4.40;;
45728;SDS011;31439;53.512;10.206;2023-07-13T03:32:08;4.85;;;3.95;;
45728;SDS011;31439;53.512;10.206;2023-07-13T03:34:33;7.93;;;4.45;;
45728;SDS011;31439;53.512;10.206;2023-07-13T03:36:59;7.45;;;4.00;;
45728;SDS011;31439;53.512;10.206;2023-07-13T03:39:25;8.05;;;4.50;;
45728;SDS011;31439;53.512;10.206;2023-07-13T03:41:50;8.18;;;4.82;;
45728;SDS011;31439;53.512;10.206;2023-07-13T03:44:16;7.22;;;4.22;;
45728;SDS011;31439;53.512;10.206;2023-07-13T03:46:43;6.55;;;4.72;;
45728;SDS011;31439;53.512;10.206;2023-07-13T03:49:08;8.38;;;4.50;;
45728;SDS011;31439;53.512;10.206;2023-07-13T03:51:34;6.82;;;4.53;;
45728;SDS011;31439;53.512;10.206;2023-07-13T03:54:00;9.10;;;4.45;;
45728;SDS011;31439;53.512;10.206;2023-07-13T03:56:27;9.85;;;5.07;;
45728;SDS011;31439;53.512;10.206;2023-07-13T03:58:53;8.45;;;4.70;;
45728;SDS011;31439;53.512;10.206;2023-07-13T04:01:19;6.20;;;4.30;;
45728;SDS011;31439;53.512;10.206;2023-07-13T04:03:46;8.30;;;4.88;;
45728;SDS011;31439;53.512;10.206;2023-07-13T04:06:17;8.10;;;4.53;;
45728;SDS011;31439;53.512;10.206;2023-07-13T04:08:46;6.60;;;4.10;;
45728;SDS011;31439;53.512;10.206;2023-07-13T04:11:14;8.75;;;3.95;;
45728;SDS011;31439;53.512;10.206;2023-07-13T04:13:39;7.60;;;4.45;;
45728;SDS011;31439;53.512;10.206;2023-07-13T04:16:05;7.75;;;4.50;;
45728;SDS011;31439;53.512;10.206;2023-07-13T04:18:31;8.13;;;4.47;;
45728;SDS011;31439;53.512;10.206;2023-07-13T04:20:56;11.75;;;4.57;;
45728;SDS011;31439;53.512;10.206;2023-07-13T04:23:22;8.50;;;4.47;;
45728;SDS011;31439;53.512;10.206;2023-07-13T04:25:48;6.63;;;5.00;;
45728;SDS011;31439;53.512;10.206;2023-07-13T04:28:19;6.18;;;4.03;;
45728;SDS011;31439;53.512;10.206;2023-07-13T04:30:46;6.20;;;3.92;;
45728;SDS011;31439;53.512;10.206;2023-07-13T04:33:12;7.43;;;4.40;;
45728;SDS011;31439;53.512;10.206;2023-07-13T04:35:37;5.47;;;4.00;;
45728;SDS011;31439;53.512;10.206;2023-07-13T04:38:03;7.65;;;4.35;;
45728;SDS011;31439;53.512;10.206;2023-07-13T04:40:29;11.02;;;4.70;;
45728;SDS011;31439;53.512;10.206;2023-07-13T04:42:55;7.32;;;4.50;;
45728;SDS011;31439;53.512;10.206;2023-07-13T04:45:21;9.40;;;4.30;;
45728;SDS011;31439;53.512;10.206;2023-07-13T04:47:48;8.18;;;4.70;;
45728;SDS011;31439;53.512;10.206;2023-07-13T04:50:14;9.65;;;4.35;;
45728;SDS011;31439;53.512;10.206;2023-07-13T04:52:44;8.93;;;4.65;;
45728;SDS011;31439;53.512;10.206;2023-07-13T04:55:10;8.73;;;4.85;;
45728;SDS011;31439;53.512;10.206;2023-07-13T04:57:36;6.15;;;3.97;;
45728;SDS011;31439;53.512;10.206;2023-07-13T05:00:02;9.20;;;4.35;;
45728;SDS011;31439;53.512;10.206;2023-07-13T05:02:31;10.10;;;4.32;;
45728;SDS011;31439;53.512;10.206;2023-07-13T05:04:58;10.70;;;3.90;;
45728;SDS011;31439;53.512;10.206;2023-07-13T05:07:24;8.55;;;4.40;;
45728;SDS011;31439;53.512;10.206;2023-07-13T05:09:50;11.52;;;4.30;;
45728;SDS011;31439;53.512;10.206;2023-07-13T05:12:16;7.28;;;4.38;;
45728;SDS011;31439;53.512;10.206;2023-07-13T05:14:42;8.70;;;5.00;;
45728;SDS011;31439;53.512;10.206;2023-07-13T05:17:07;9.15;;;5.28;;
45728;SDS011;31439;53.512;10.206;2023-07-13T05:19:33;6.97;;;4.82;;
45728;SDS011;31439;53.512;10.206;2023-07-13T05:21:59;7.50;;;4.97;;
45728;SDS011;31439;53.512;10.206;2023-07-13T05:24:24;13.50;;;5.65;;
45728;SDS011;31439;53.512;10.206;2023-07-13T05:26:50;23.48;;;5.95;;
45728;SDS011;31439;53.512;10.206;2023-07-13T05:29:16;10.80;;;4.97;;
45728;SDS011;31439;53.512;10.206;2023-07-13T05:31:41;10.40;;;4.47;;
45728;SDS011;31439;53.512;10.206;2023-07-13T05:34:07;6.05;;;4.13;;
45728;SDS011;31439;53.512;10.206;2023-07-13T05:36:32;15.82;;;4.80;;
45728;SDS011;31439;53.512;10.206;2023-07-13T05:38:59;9.07;;;4.25;;
45728;SDS011;31439;53.512;10.206;2023-07-13T05:41:24;11.27;;;4.50;;
45728;SDS011;31439;53.512;10.206;2023-07-13T05:43:50;17.88;;;4.45;;
45728;SDS011;31439;53.512;10.206;2023-07-13T05:46:15;6.95;;;4.05;;
45728;SDS011;31439;53.512;10.206;2023-07-13T05:48:41;12.27;;;4.20;;
45728;SDS011;31439;53.512;10.206;2023-07-13T05:51:07;8.43;;;4.00;;
45728;SDS011;31439;53.512;10.206;2023-07-13T05:53:33;8.27;;;4.07;;
45728;SDS011;31439;53.512;10.206;2023-07-13T05:55:59;9.48;;;3.85;;
45728;SDS011;31439;53.512;10.206;2023-07-13T05:58:25;10.90;;;3.88;;
45728;SDS011;31439;53.512;10.206;2023-07-13T06:00:57;11.93;;;3.42;;
45728;SDS011;31439;53.512;10.206;2023-07-13T06:03:28;9.07;;;3.65;;
45728;SDS011;31439;53.512;10.206;2023-07-13T06:05:54;10.88;;;3.65;;
45728;SDS011;31439;53.512;10.206;2023-07-13T06:08:19;12.45;;;3.80;;
45728;SDS011;31439;53.512;10.206;2023-07-13T06:10:45;15.48;;;4.03;;
45728;SDS011;31439;53.512;10.206;2023-07-13T06:13:10;11.40;;;3.92;;
45728;SDS011;31439;53.512;10.206;2023-07-13T06:15:36;16.25;;;3.92;;
45728;SDS011;31439;53.512;10.206;2023-07-13T06:18:01;15.23;;;3.47;;
45728;SDS011;31439;53.512;10.206;2023-07-13T06:20:27;16.17;;;3.63;;
45728;SDS011;31439;53.512;10.206;2023-07-13T06:22:54;15.75;;;3.88;;
45728;SDS011;31439;53.512;10.206;2023-07-13T06:25:19;12.70;;;3.75;;
45728;SDS011;31439;53.512;10.206;2023-07-13T06:27:45;12.10;;;3.58;;
45728;SDS011;31439;53.512;10.206;2023-07-13T06:30:11;35.55;;;6.97;;
45728;SDS011;31439;53.512;10.206;2023-07-13T06:32:37;18.52;;;4.43;;
45728;SDS011;31439;53.512;10.206;2023-07-13T06:35:02;12.23;;;4.00;;
45728;SDS011;31439;53.512;10.206;2023-07-13T06:37:28;14.45;;;3.20;;
45728;SDS011;31439;53.512;10.206;2023-07-13T06:39:54;14.25;;;3.70;;
45728;SDS011;31439;53.512;10.206;2023-07-13T06:42:20;15.82;;;3.35;;
45728;SDS011;31439;53.512;10.206;2023-07-13T06:44:45;10.80;;;3.00;;
45728;SDS011;31439;53.512;10.206;2023-07-13T06:47:11;12.32;;;3.25;;
45728;SDS011;31439;53.512;10.206;2023-07-13T06:49:37;10.23;;;2.83;;
45728;SDS011;31439;53.512;10.206;2023-07-13T06:52:03;10.23;;;2.90;;
45728;SDS011;31439;53.512;10.206;2023-07-13T06:54:29;12.48;;;3.20;;
45728;SDS011;31439;53.512;10.206;2023-07-13T06:56:54;10.65;;;3.10;;
45728;SDS011;31439;53.512;10.206;2023-07-13T06:59:20;10.20;;;2.70;;
45728;SDS011;31439;53.512;10.206;2023-07-13T07:01:45;11.43;;;3.25;;
45728;SDS011;31439;53.512;10.206;2023-07-13T07:04:11;13.73;;;2.95;;
45728;SDS011;31439;53.512;10.206;2023-07-13T07:06:37;12.13;;;3.42;;
45728;SDS011;31439;53.512;10.206;2023-07-13T07:09:02;13.50;;;3.28;;
45728;SDS011;31439;53.512;10.206;2023-07-13T07:11:28;10.27;;;3.10;;
45728;SDS011;31439;53.512;10.206;2023-07-13T07:13:54;6.65;;;2.70;;
45728;SDS011;31439;53.512;10.206;2023-07-13T07:16:20;8.27;;;2.72;;
45728;SDS011;31439;53.512;10.206;2023-07-13T07:18:46;11.27;;;3.25;;
45728;SDS011;31439;53.512;10.206;2023-07-13T07:21:12;20.42;;;3.80;;
45728;SDS011;31439;53.512;10.206;2023-07-13T07:23:38;16.25;;;3.60;;
45728;SDS011;31439;53.512;10.206;2023-07-13T07:26:04;13.20;;;3.25;;
45728;SDS011;31439;53.512;10.206;2023-07-13T07:28:30;8.55;;;2.42;;
45728;SDS011;31439;53.512;10.206;2023-07-13T07:30:56;13.35;;;2.90;;
45728;SDS011;31439;53.512;10.206;2023-07-13T07:33:23;12.38;;;2.88;;
45728;SDS011;31439;53.512;10.206;2023-07-13T07:35:49;10.05;;;2.80;;
45728;SDS011;31439;53.512;10.206;2023-07-13T07:38:16;11.48;;;3.00;;
45728;SDS011;31439;53.512;10.206;2023-07-13T07:40:41;10.32;;;2.88;;
45728;SDS011;31439;53.512;10.206;2023-07-13T07:43:10;10.93;;;3.25;;
45728;SDS011;31439;53.512;10.206;2023-07-13T07:45:37;11.50;;;3.17;;
45728;SDS011;31439;53.512;10.206;2023-07-13T07:48:06;10.90;;;3.22;;
45728;SDS011;31439;53.512;10.206;2023-07-13T07:50:34;10.70;;;2.85;;
45728;SDS011;31439;53.512;10.206;2023-07-13T07:53:00;10.55;;;2.70;;
45728;SDS011;31439;53.512;10.206;2023-07-13T07:55:27;10.82;;;2.47;;
45728;SDS011;31439;53.512;10.206;2023-07-13T07:57:52;10.32;;;2.92;;
45728;SDS011;31439;53.512;10.206;2023-07-13T08:00:19;11.90;;;2.90;;
45728;SDS011;31439;53.512;10.206;2023-07-13T08:02:45;8.73;;;2.90;;
45728;SDS011;31439;53.512;10.206;2023-07-13T08:05:11;9.32;;;2.95;;
45728;SDS011;31439;53.512;10.206;2023-07-13T08:07:37;14.02;;;2.80;;
45728;SDS011;31439;53.512;10.206;2023-07-13T08:10:03;7.65;;;2.67;;
45728;SDS011;31439;53.512;10.206;2023-07-13T08:12:38;8.57;;;2.70;;
45728;SDS011;31439;53.512;10.206;2023-07-13T08:15:05;7.00;;;2.60;;
45728;SDS011;31439;53.512;10.206;2023-07-13T08:17:34;12.05;;;3.00;;
45728;SDS011;31439;53.512;10.206;2023-07-13T08:20:00;11.02;;;2.78;;
45728;SDS011;31439;53.512;10.206;2023-07-13T08:22:26;8.98;;;3.00;;
45728;SDS011;31439;53.512;10.206;2023-07-13T08:24:52;12.25;;;2.90;;
45728;SDS011;31439;53.512;10.206;2023-07-13T08:27:21;11.80;;;2.95;;
45728;SDS011;31439;53.512;10.206;2023-07-13T08:29:48;10.55;;;2.40;;
45728;SDS011;31439;53.512;10.206;2023-07-13T08:32:14;10.77;;;2.55;;
45728;SDS011;31439;53.512;10.206;2023-07-13T08:34:40;7.85;;;2.38;;
45728;SDS011;31439;53.512;10.206;2023-07-13T08:37:06;29.98;;;6.18;;
45728;SDS011;31439;53.512;10.206;2023-07-13T08:39:32;20.70;;;4.35;;
45728;SDS011;31439;53.512;10.206;2023-07-13T08:42:02;13.30;;;2.65;;
45728;SDS011;31439;53.512;10.206;2023-07-13T08:44:40;5.93;;;2.28;;
45728;SDS011;31439;53.512;10.206;2023-07-13T08:47:16;10.32;;;2.47;;
45728;SDS011;31439;53.512;10.206;2023-07-13T08:49:46;10.30;;;2.58;;
45728;SDS011;31439;53.512;10.206;2023-07-13T08:52:45;10.82;;;2.83;;
45728;SDS011;31439;53.512;10.206;2023-07-13T08:55:12;10.32;;;2.90;;
45728;SDS011;31439;53.512;10.206;2023-07-13T08:57:41;9.48;;;2.72;;
45728;SDS011;31439;53.512;10.206;2023-07-13T09:00:10;8.48;;;2.45;;
45728;SDS011;31439;53.512;10.206;2023-07-13T09:02:48;9.40;;;2.45;;
45728;SDS011;31439;53.512;10.206;2023-07-13T09:08:02;7.88;;;2.03;;
45728;SDS011;31439;53.512;10.206;2023-07-13T09:10:45;9.70;;;2.58;;
45728;SDS011;31439;53.512;10.206;2023-07-13T09:15:57;6.47;;;2.13;;
45728;SDS011;31439;53.512;10.206;2023-07-13T09:18:38;9.88;;;2.33;;
45728;SDS011;31439;53.512;10.206;2023-07-13T09:21:11;5.53;;;2.00;;
45728;SDS011;31439;53.512;10.206;2023-07-13T09:23:41;10.13;;;2.83;;
45728;SDS011;31439;53.512;10.206;2023-07-13T09:26:28;10.02;;;2.15;;
45728;SDS011;31439;53.512;10.206;2023-07-13T09:28:57;8.57;;;2.67;;
45728;SDS011;31439;53.512;10.206;2023-07-13T09:31:38;8.15;;;2.53;;
45728;SDS011;31439;53.512;10.206;2023-07-13T09:34:11;10.45;;;2.60;;
45728;SDS011;31439;53.512;10.206;2023-07-13T09:36:38;7.80;;;2.75;;
45728;SDS011;31439;53.512;10.206;2023-07-13T09:44:26;13.98;;;3.85;;
45728;SDS011;31439;53.512;10.206;2023-07-13T09:47:03;36.80;;;5.95;;
45728;SDS011;31439;53.512;10.206;2023-07-13T09:49:40;12.90;;;3.78;;
45728;SDS011;31439;53.512;10.206;2023-07-13T09:52:07;9.07;;;3.13;;
45728;SDS011;31439;53.512;10.206;2023-07-13T09:54:36;42.25;;;7.30;;
45728;SDS011;31439;53.512;10.206;2023-07-13T09:57:03;7.63;;;2.70;;
45728;SDS011;31439;53.512;10.206;2023-07-13T09:59:40;22.83;;;4.50;;
45728;SDS011;31439;53.512;10.206;2023-07-13T10:05:10;6.28;;;2.33;;
45728;SDS011;31439;53.512;10.206;2023-07-13T10:07:40;10.40;;;3.13;;
45728;SDS011;31439;53.512;10.206;2023-07-13T10:10:18;9.35;;;2.78;;
45728;SDS011;31439;53.512;10.206;2023-07-13T10:12:47;9.23;;;2.70;;
45728;SDS011;31439;53.512;10.206;2023-07-13T10:15:16;9.48;;;2.80;;
45728;SDS011;31439;53.512;10.206;2023-07-13T10:17:44;6.57;;;2.60;;
45728;SDS011;31439;53.512;10.206;2023-07-13T10:20:11;8.00;;;2.72;;
45728;SDS011;31439;53.512;10.206;2023-07-13T10:25:20;6.53;;;2.10;;
45728;SDS011;31439;53.512;10.206;2023-07-13T10:27:50;11.70;;;2.42;;
45728;SDS011;31439;53.512;10.206;2023-07-13T10:33:00;9.18;;;2.60;;
45728;SDS011;31439;53.512;10.206;2023-07-13T10:35:28;8.13;;;2.83;;
45728;SDS011;31439;53.512;10.206;2023-07-13T10:38:41;6.03;;;2.58;;
45728;SDS011;31439;53.512;10.206;2023-07-13T10:41:08;7.10;;;2.75;;
45728;SDS011;31439;53.512;10.206;2023-07-13T10:43:37;8.38;;;2.50;;
45728;SDS011;31439;53.512;10.206;2023-07-13T10:46:10;6.78;;;2.45;;
45728;SDS011;31439;53.512;10.206;2023-07-13T10:48:38;8.55;;;2.90;;
45728;SDS011;31439;53.512;10.206;2023-07-13T10:51:06;12.27;;;2.50;;
45728;SDS011;31439;53.512;10.206;2023-07-13T10:53:36;5.68;;;2.15;;
45728;SDS011;31439;53.512;10.206;2023-07-13T10:58:39;5.78;;;2.60;;
45728;SDS011;31439;53.512;10.206;2023-07-13T11:01:11;9.40;;;2.50;;
45728;SDS011;31439;53.512;10.206;2023-07-13T11:03:54;7.22;;;2.40;;
45728;SDS011;31439;53.512;10.206;2023-07-13T11:09:03;8.02;;;2.58;;
45728;SDS011;31439;53.512;10.206;2023-07-13T11:11:41;10.80;;;2.75;;
45728;SDS011;31439;53.512;10.206;2023-07-13T11:16:53;7.97;;;2.63;;
45728;SDS011;31439;53.512;10.206;2023-07-13T11:22:10;31.08;;;3.70;;
45728;SDS011;31439;53.512;10.206;2023-07-13T11:27:50;6.32;;;2.22;;
45728;SDS011;31439;53.512;10.206;2023-07-13T11:35:51;6.10;;;1.77;;
45728;SDS011;31439;53.512;10.206;2023-07-13T11:38:41;5.97;;;1.75;;
45728;SDS011;31439;53.512;10.206;2023-07-13T11:41:18;7.05;;;2.25;;
45728;SDS011;31439;53.512;10.206;2023-07-13T11:46:38;8.32;;;2.15;;
45728;SDS011;31439;53.512;10.206;2023-07-13T11:49:07;6.53;;;1.85;;
45728;SDS011;31439;53.512;10.206;2023-07-13T11:51:33;8.90;;;2.20;;
45728;SDS011;31439;53.512;10.206;2023-07-13T11:54:24;9.48;;;1.90;;
45728;SDS011;31439;53.512;10.206;2023-07-13T11:57:06;4.25;;;2.00;;
45728;SDS011;31439;53.512;10.206;2023-07-13T11:59:58;5.70;;;1.73;;
45728;SDS011;31439;53.512;10.206;2023-07-13T12:02:41;10.00;;;2.17;;
45728;SDS011;31439;53.512;10.206;2023-07-13T12:05:10;5.22;;;1.60;;
45728;SDS011;31439;53.512;10.206;2023-07-13T12:07:38;3.63;;;1.60;;
45728;SDS011;31439;53.512;10.206;2023-07-13T12:12:46;4.05;;;1.70;;
45728;SDS011;31439;53.512;10.206;2023-07-13T12:15:21;7.00;;;1.80;;
45728;SDS011;31439;53.512;10.206;2023-07-13T12:17:48;4.30;;;1.65;;
45728;SDS011;31439;53.512;10.206;2023-07-13T12:20:19;4.78;;;1.70;;
45728;SDS011;31439;53.512;10.206;2023-07-13T12:22:49;3.20;;;1.63;;
45728;SDS011;31439;53.512;10.206;2023-07-13T12:25:15;4.13;;;1.60;;
45728;SDS011;31439;53.512;10.206;2023-07-13T12:27:42;6.75;;;2.25;;
45728;SDS011;31439;53.512;10.206;2023-07-13T12:30:32;4.18;;;1.70;;
45728;SDS011;31439;53.512;10.206;2023-07-13T12:33:07;5.55;;;1.77;;
45728;SDS011;31439;53.512;10.206;2023-07-13T12:35:40;13.20;;;2.65;;
45728;SDS011;31439;53.512;10.206;2023-07-13T12:38:10;10.05;;;2.80;;
45728;SDS011;31439;53.512;10.206;2023-07-13T12:40:37;6.95;;;2.20;;
45728;SDS011;31439;53.512;10.206;2023-07-13T12:43:05;6.32;;;2.10;;
45728;SDS011;31439;53.512;10.206;2023-07-13T12:45:36;5.47;;;2.30;;
45728;SDS011;31439;53.512;10.206;2023-07-13T12:48:05;7.03;;;2.10;;
45728;SDS011;31439;53.512;10.206;2023-07-13T12:50:40;7.70;;;2.40;;
45728;SDS011;31439;53.512;10.206;2023-07-13T12:53:14;7.22;;;2.47;;
45728;SDS011;31439;53.512;10.206;2023-07-13T12:55:53;7.15;;;2.10;;
45728;SDS011;31439;53.512;10.206;2023-07-13T13:00:59;5.22;;;2.10;;
45728;SDS011;31439;53.512;10.206;2023-07-13T13:03:31;5.70;;;2.55;;
45728;SDS011;31439;53.512;10.206;2023-07-13T13:06:02;15.00;;;3.35;;
45728;SDS011;31439;53.512;10.206;2023-07-13T13:08:45;7.85;;;2.53;;
45728;SDS011;31439;53.512;10.206;2023-07-13T13:11:13;3.85;;;2.35;;
45728;SDS011;31439;53.512;10.206;2023-07-13T13:13:41;5.47;;;2.30;;
45728;SDS011;31439;53.512;10.206;2023-07-13T13:16:20;5.65;;;2.58;;
45728;SDS011;31439;53.512;10.206;2023-07-13T13:18:50;5.60;;;2.80;;
45728;SDS011;31439;53.512;10.206;2023-07-13T13:21:17;6.47;;;3.00;;
45728;SDS011;31439;53.512;10.206;2023-07-13T13:23:43;7.25;;;2.63;;
45728;SDS011;31439;53.512;10.206;2023-07-13T13:26:11;8.32;;;2.80;;
45728;SDS011;31439;53.512;10.206;2023-07-13T13:28:38;5.80;;;2.58;;
45728;SDS011;31439;53.512;10.206;2023-07-13T13:31:04;14.75;;;3.22;;
45728;SDS011;31439;53.512;10.206;2023-07-13T13:33:29;18.08;;;3.40;;
45728;SDS011;31439;53.512;10.206;2023-07-13T13:35:55;14.57;;;3.90;;
45728;SDS011;31439;53.512;10.206;2023-07-13T13:38:26;6.05;;;2.33;;
45728;SDS011;31439;53.512;10.206;2023-07-13T13:40:52;5.88;;;2.20;;
45728;SDS011;31439;53.512;10.206;2023-07-13T13:43:23;4.90;;;1.98;;
45728;SDS011;31439;53.512;10.206;2023-07-13T13:45:56;5.05;;;2.33;;
45728;SDS011;31439;53.512;10.206;2023-07-13T13:48:31;5.40;;;2.13;;
45728;SDS011;31439;53.512;10.206;2023-07-13T13:50:58;4.22;;;2.03;;
45728;SDS011;31439;53.512;10.206;2023-07-13T13:53:25;4.25;;;1.90;;
45728;SDS011;31439;53.512;10.206;2023-07-13T13:55:52;4.13;;;1.92;;
45728;SDS011;31439;53.512;10.206;2023-07-13T13:58:20;4.05;;;2.00;;
45728;SDS011;31439;53.512;10.206;2023-07-13T14:00:47;9.40;;;2.20;;
45728;SDS011;31439;53.512;10.206;2023-07-13T14:03:20;4.40;;;1.90;;
45728;SDS011;31439;53.512;10.206;2023-07-13T14:05:47;10.90;;;2.80;;
45728;SDS011;31439;53.512;10.206;2023-07-13T14:08:14;7.68;;;2.30;;
45728;SDS011;31439;53.512;10.206;2023-07-13T14:10:41;5.22;;;2.00;;
45728;SDS011;31439;53.512;10.206;2023-07-13T14:13:08;5.45;;;2.42;;
45728;SDS011;31439;53.512;10.206;2023-07-13T14:15:43;5.75;;;1.92;;
45728;SDS011;31439;53.512;10.206;2023-07-13T14:18:09;6.93;;;1.85;;
45728;SDS011;31439;53.512;10.206;2023-07-13T14:20:35;7.00;;;2.40;;
45728;SDS011;31439;53.512;10.206;2023-07-13T14:23:01;7.72;;;2.30;;
45728;SDS011;31439;53.512;10.206;2023-07-13T14:25:26;8.13;;;2.40;;
45728;SDS011;31439;53.512;10.206;2023-07-13T14:27:53;5.40;;;2.10;;
45728;SDS011;31439;53.512;10.206;2023-07-13T14:30:24;10.05;;;2.78;;
45728;SDS011;31439;53.512;10.206;2023-07-13T14:32:53;14.90;;;2.92;;
45728;SDS011;31439;53.512;10.206;2023-07-13T14:35:19;3.75;;;2.05;;
45728;SDS011;31439;53.512;10.206;2023-07-13T14:37:48;6.90;;;2.42;;
45728;SDS011;31439;53.512;10.206;2023-07-13T14:40:19;16.00;;;2.90;;
45728;SDS011;31439;53.512;10.206;2023-07-13T14:42:51;7.97;;;2.45;;
45728;SDS011;31439;53.512;10.206;2023-07-13T14:45:17;5.72;;;2.00;;
45728;SDS011;31439;53.512;10.206;2023-07-13T14:47:44;4.47;;;1.90;;
45728;SDS011;31439;53.512;10.206;2023-07-13T14:50:15;12.15;;;2.80;;
45728;SDS011;31439;53.512;10.206;2023-07-13T14:52:43;4.03;;;1.95;;
45728;SDS011;31439;53.512;10.206;2023-07-13T14:55:10;4.25;;;2.00;;
45728;SDS011;31439;53.512;10.206;2023-07-13T14:57:37;11.27;;;2.60;;
45728;SDS011;31439;53.512;10.206;2023-07-13T15:00:13;5.72;;;1.88;;
45728;SDS011;31439;53.512;10.206;2023-07-13T15:02:40;12.10;;;3.15;;
45728;SDS011;31439;53.512;10.206;2023-07-13T15:05:19;15.90;;;2.58;;
45728;SDS011;31439;53.512;10.206;2023-07-13T15:07:48;10.93;;;2.28;;
45728;SDS011;31439;53.512;10.206;2023-07-13T15:10:19;11.57;;;2.75;;
45728;SDS011;31439;53.512;10.206;2023-07-13T15:12:46;4.85;;;1.88;;
45728;SDS011;31439;53.512;10.206;2023-07-13T15:15:12;7.57;;;2.47;;
45728;SDS011;31439;53.512;10.206;2023-07-13T15:17:42;6.63;;;2.90;;
45728;SDS011;31439;53.512;10.206;2023-07-13T15:20:18;4.40;;;2.28;;
45728;SDS011;31439;53.512;10.206;2023-07-13T15:22:55;12.50;;;2.70;;
45728;SDS011;31439;53.512;10.206;2023-07-13T15:25:22;4.35;;;2.00;;
45728;SDS011;31439;53.512;10.206;2023-07-13T15:27:50;8.70;;;2.10;;
45728;SDS011;31439;53.512;10.206;2023-07-13T15:30:17;4.75;;;2.20;;